sensor_id;sensor_type;location;lat;lon;timestamp;temperature;humidity
75517;DHT22;64097;52.548;13.406;2023-04-03T06:03:29;6.40;56.70
75517;DHT22;64097;52.548;13.406;2023-04-03T06:05:55;6.40;56.60
75517;DHT22;64097;52.548;13.406;2023-04-03T06:08:21;6.40;56.50
75517;DHT22;64097;52.548;13.406;2023-04-03T06:10:47;6.50;56.60
75517;DHT22;64097;52.548;13.406;2023-04-03T06:13:13;6.50;56.50
75517;DHT22;64097;52.548;13.406;2023-04-03T06:15:39;6.50;56.40
75517;DHT22;64097;52.548;13.406;2023-04-03T06:18:05;6.50;56.30
75517;DHT22;64097;52.548;13.406;2023-04-03T06:20:32;6.60;56.20
75517;DHT22;64097;52.548;13.406;2023-04-03T06:22:57;6.60;56.20
75517;DHT22;64097;52.548;13.406;2023-04-03T06:25:23;6.60;56.00
75517;DHT22;64097;52.548;13.406;2023-04-03T06:27:49;6.60;55.90
75517;DHT22;64097;52.548;13.406;2023-04-03T06:30:14;6.70;55.80
75517;DHT22;64097;52.548;13.406;2023-04-03T06:32:40;6.70;55.60
75517;DHT22;64097;52.548;13.406;2023-04-03T06:35:06;6.80;55.60
75517;DHT22;64097;52.548;13.406;2023-04-03T06:37:32;6.80;55.50
75517;DHT22;64097;52.548;13.406;2023-04-03T06:39:58;6.80;55.40
75517;DHT22;64097;52.548;13.406;2023-04-03T06:42:26;6.80;55.20
75517;DHT22;64097;52.548;13.406;2023-04-03T06:44:51;6.90;55.10
75517;DHT22;64097;52.548;13.406;2023-04-03T06:47:17;6.90;55.00
75517;DHT22;64097;52.548;13.406;2023-04-03T06:49:44;6.90;54.70
75517;DHT22;64097;52.548;13.406;2023-04-03T06:52:10;7.00;54.60
75517;DHT22;64097;52.548;13.406;2023-04-03T06:54:37;7.00;54.60
75517;DHT22;64097;52.548;13.406;2023-04-03T06:57:03;7.10;54.40
75517;DHT22;64097;52.548;13.406;2023-04-03T06:59:29;7.10;54.00
75517;DHT22;64097;52.548;13.406;2023-04-03T07:01:55;7.10;53.60
75517;DHT22;64097;52.548;13.406;2023-04-03T07:04:21;7.20;53.40
75517;DHT22;64097;52.548;13.406;2023-04-03T07:06:47;7.20;53.30
75517;DHT22;64097;52.548;13.406;2023-04-03T07:09:14;7.20;53.10
75517;DHT22;64097;52.548;13.406;2023-04-03T07:11:40;7.30;52.60
75517;DHT22;64097;52.548;13.406;2023-04-03T07:14:06;7.40;51.70
75517;DHT22;64097;52.548;13.406;2023-04-03T07:16:34;7.40;51.10
75517;DHT22;64097;52.548;13.406;2023-04-03T07:19:00;7.40;51.00
75517;DHT22;64097;52.548;13.406;2023-04-03T07:21:27;7.50;50.70
75517;DHT22;64097;52.548;13.406;2023-04-03T07:23:53;7.50;49.90
75517;DHT22;64097;52.548;13.406;2023-04-03T07:26:20;7.60;50.00
75517;DHT22;64097;52.548;13.406;2023-04-03T07:28:47;7.60;49.70
75517;DHT22;64097;52.548;13.406;2023-04-03T07:31:14;7.70;49.60
75517;DHT22;64097;52.548;13.406;2023-04-03T07:33:42;7.80;48.90
75517;DHT22;64097;52.548;13.406;2023-04-03T07:36:09;7.80;49.00
75517;DHT22;64097;52.548;13.406;2023-04-03T07:38:36;7.90;48.60
75517;DHT22;64097;52.548;13.406;2023-04-03T07:41:03;8.00;48.70
75517;DHT22;64097;52.548;13.406;2023-04-03T07:43:29;8.00;47.90
75517;DHT22;64097;52.548;13.406;2023-04-03T07:45:54;8.10;48.10
75517;DHT22;64097;52.548;13.406;2023-04-03T07:48:22;8.10;47.60
75517;DHT22;64097;52.548;13.406;2023-04-03T07:50:48;8.10;47.70
75517;DHT22;64097;52.548;13.406;2023-04-03T07:53:14;8.10;47.60
75517;DHT22;64097;52.548;13.406;2023-04-03T07:55:40;8.20;47.60
75517;DHT22;64097;52.548;13.406;2023-04-03T07:58:14;8.20;47.20
75517;DHT22;64097;52.548;13.406;2023-04-03T08:00:40;8.30;46.80
75517;DHT22;64097;52.548;13.406;2023-04-03T08:03:07;8.20;46.40
75517;DHT22;64097;52.548;13.406;2023-04-03T08:05:43;8.30;46.30
75517;DHT22;64097;52.548;13.406;2023-04-03T08:08:11;8.30;46.30
75517;DHT22;64097;52.548;13.406;2023-04-03T08:10:38;8.30;46.10
75517;DHT22;64097;52.548;13.406;2023-04-03T08:13:04;8.30;46.20
75517;DHT22;64097;52.548;13.406;2023-04-03T08:15:30;8.30;46.10
75517;DHT22;64097;52.548;13.406;2023-04-03T08:17:57;8.30;46.10
75517;DHT22;64097;52.548;13.406;2023-04-03T08:20:23;8.40;46.50
75517;DHT22;64097;52.548;13.406;2023-04-03T08:22:49;8.40;46.30
75517;DHT22;64097;52.548;13.406;2023-04-03T08:25:15;8.50;46.10
75517;DHT22;64097;52.548;13.406;2023-04-03T08:27:40;8.60;46.10
75517;DHT22;64097;52.548;13.406;2023-04-03T08:30:07;8.60;45.70
75517;DHT22;64097;52.548;13.406;2023-04-03T08:32:34;8.70;45.00
75517;DHT22;64097;52.548;13.406;2023-04-03T08:35:01;8.70;45.10
75517;DHT22;64097;52.548;13.406;2023-04-03T08:37:27;8.80;44.60
75517;DHT22;64097;52.548;13.406;2023-04-03T08:39:53;8.80;44.30
75517;DHT22;64097;52.548;13.406;2023-04-03T08:42:41;8.80;44.60
75517;DHT22;64097;52.548;13.406;2023-04-03T08:45:27;8.90;43.80
75517;DHT22;64097;52.548;13.406;2023-04-03T08:48:05;9.00;43.10
75517;DHT22;64097;52.548;13.406;2023-04-03T08:50:50;9.00;43.20
75517;DHT22;64097;52.548;13.406;2023-04-03T08:53:20;9.00;42.60
75517;DHT22;64097;52.548;13.406;2023-04-03T08:55:51;9.10;42.60
75517;DHT22;64097;52.548;13.406;2023-04-03T08:58:22;9.10;42.70
75517;DHT22;64097;52.548;13.406;2023-04-03T09:01:02;9.20;42.60
75517;DHT22;64097;52.548;13.406;2023-04-03T09:03:31;9.30;42.60
75517;DHT22;64097;52.548;13.406;2023-04-03T09:06:07;9.30;42.20
75517;DHT22;64097;52.548;13.406;2023-04-03T09:11:24;9.30;42.10
75517;DHT22;64097;52.548;13.406;2023-04-03T09:14:07;9.30;41.90
75517;DHT22;64097;52.548;13.406;2023-04-03T09:16:48;9.20;41.40
75517;DHT22;64097;52.548;13.406;2023-04-03T09:19:48;9.20;41.20
75517;DHT22;64097;52.548;13.406;2023-04-03T09:22:24;9.10;41.10
75517;DHT22;64097;52.548;13.406;2023-04-03T09:24:57;9.10;41.20
75517;DHT22;64097;52.548;13.406;2023-04-03T09:27:25;9.10;41.10
75517;DHT22;64097;52.548;13.406;2023-04-03T09:29:53;9.10;41.40
75517;DHT22;64097;52.548;13.406;2023-04-03T09:32:34;9.10;41.50
75517;DHT22;64097;52.548;13.406;2023-04-03T09:35:13;9.10;41.30
75517;DHT22;64097;52.548;13.406;2023-04-03T09:42:57;9.20;41.40
75517;DHT22;64097;52.548;13.406;2023-04-03T09:45:34;9.20;41.10
75517;DHT22;64097;52.548;13.406;2023-04-03T09:53:42;9.20;41.00
75517;DHT22;64097;52.548;13.406;2023-04-03T09:58:44;9.30;41.30
75517;DHT22;64097;52.548;13.406;2023-04-03T10:01:31;9.40;41.50
75517;DHT22;64097;52.548;13.406;2023-04-03T10:09:26;9.70;40.40
75517;DHT22;64097;52.548;13.406;2023-04-03T10:15:16;9.90;40.10
75517;DHT22;64097;52.548;13.406;2023-04-03T10:17:56;9.90;39.70
75517;DHT22;64097;52.548;13.406;2023-04-03T10:20:35;10.00;40.00
75517;DHT22;64097;52.548;13.406;2023-04-03T10:23:10;10.10;40.50
75517;DHT22;64097;52.548;13.406;2023-04-03T10:28:57;10.20;38.60
75517;DHT22;64097;52.548;13.406;2023-04-03T10:31:30;10.20;38.60
75517;DHT22;64097;52.548;13.406;2023-04-03T10:34:04;10.30;38.70
75517;DHT22;64097;52.548;13.406;2023-04-03T10:39:39;10.40;38.70
75517;DHT22;64097;52.548;13.406;2023-04-03T10:42:18;10.50;38.10
75517;DHT22;64097;52.548;13.406;2023-04-03T10:48:11;10.70;38.30
75517;DHT22;64097;52.548;13.406;2023-04-03T10:50:58;10.70;37.70
75517;DHT22;64097;52.548;13.406;2023-04-03T10:53:39;10.70;37.60
75517;DHT22;64097;52.548;13.406;2023-04-03T10:56:15;10.80;38.40
75517;DHT22;64097;52.548;13.406;2023-04-03T10:58:48;10.80;37.50
75517;DHT22;64097;52.548;13.406;2023-04-03T11:01:21;10.90;37.80
75517;DHT22;64097;52.548;13.406;2023-04-03T11:03:57;11.00;37.90
75517;DHT22;64097;52.548;13.406;2023-04-03T11:06:28;11.00;37.80
75517;DHT22;64097;52.548;13.406;2023-04-03T11:09:01;11.00;38.00
75517;DHT22;64097;52.548;13.406;2023-04-03T11:11:38;11.10;37.30
75517;DHT22;64097;52.548;13.406;2023-04-03T11:22:42;11.20;37.40
75517;DHT22;64097;52.548;13.406;2023-04-03T11:27:55;11.20;37.40
75517;DHT22;64097;52.548;13.406;2023-04-03T11:30:30;11.20;37.40
75517;DHT22;64097;52.548;13.406;2023-04-03T11:35:23;11.20;37.50
75517;DHT22;64097;52.548;13.406;2023-04-03T11:37:53;11.20;37.00
75517;DHT22;64097;52.548;13.406;2023-04-03T11:42:47;11.20;37.40
75517;DHT22;64097;52.548;13.406;2023-04-03T11:47:51;11.20;37.40
75517;DHT22;64097;52.548;13.406;2023-04-03T11:53:26;11.30;38.00
75517;DHT22;64097;52.548;13.406;2023-04-03T11:55:55;11.30;37.60
75517;DHT22;64097;52.548;13.406;2023-04-03T11:58:29;11.30;37.20
75517;DHT22;64097;52.548;13.406;2023-04-03T12:01:11;11.30;37.20
75517;DHT22;64097;52.548;13.406;2023-04-03T12:04:06;11.30;37.20
75517;DHT22;64097;52.548;13.406;2023-04-03T12:08:58;11.20;37.80
75517;DHT22;64097;52.548;13.406;2023-04-03T12:11:28;11.30;38.00
75517;DHT22;64097;52.548;13.406;2023-04-03T12:48:56;11.30;37.20
75517;DHT22;64097;52.548;13.406;2023-04-03T12:51:34;11.30;36.70
75517;DHT22;64097;52.548;13.406;2023-04-03T12:54:12;11.40;36.60
75517;DHT22;64097;52.548;13.406;2023-04-03T12:56:39;11.40;36.80
75517;DHT22;64097;52.548;13.406;2023-04-03T12:59:16;11.40;37.10
75517;DHT22;64097;52.548;13.406;2023-04-03T13:01:43;11.50;37.00
75517;DHT22;64097;52.548;13.406;2023-04-03T13:04:10;11.50;37.00
75517;DHT22;64097;52.548;13.406;2023-04-03T13:06:42;11.50;37.10
75517;DHT22;64097;52.548;13.406;2023-04-03T13:11:59;11.50;37.00
75517;DHT22;64097;52.548;13.406;2023-04-03T13:14:27;11.40;37.00
75517;DHT22;64097;52.548;13.406;2023-04-03T13:19:29;11.30;37.50
75517;DHT22;64097;52.548;13.406;2023-04-03T13:22:08;11.30;37.50
75517;DHT22;64097;52.548;13.406;2023-04-03T13:24:37;11.30;37.50
75517;DHT22;64097;52.548;13.406;2023-04-03T13:27:05;11.30;37.20
75517;DHT22;64097;52.548;13.406;2023-04-03T13:29:34;11.30;37.50
75517;DHT22;64097;52.548;13.406;2023-04-03T13:32:01;11.30;37.70
75517;DHT22;64097;52.548;13.406;2023-04-03T13:34:35;11.30;37.60
75517;DHT22;64097;52.548;13.406;2023-04-03T13:37:02;11.30;37.60
75517;DHT22;64097;52.548;13.406;2023-04-03T13:39:38;11.30;37.70
75517;DHT22;64097;52.548;13.406;2023-04-03T13:42:22;11.30;37.50
75517;DHT22;64097;52.548;13.406;2023-04-03T13:44:48;11.30;37.50
75517;DHT22;64097;52.548;13.406;2023-04-03T13:47:21;11.30;37.70
75517;DHT22;64097;52.548;13.406;2023-04-03T13:50:01;11.30;37.40
75517;DHT22;64097;52.548;13.406;2023-04-03T13:52:39;11.20;37.80
75517;DHT22;64097;52.548;13.406;2023-04-03T13:57:56;11.20;37.90
